Fruitvale, TX (75127)

6:00 AM CDT on March 29, 2017 (GMT -0500)
Cowart Farm and Foliage Grand Saline | | Change Station

Elev 477 ft 32.62 °N, 95.74 °W | Updated 14 seconds ago

Rain
Rain
59.2 °F
Feels Like 59.2 °F
N
0.0
Wind Variable Wind from East

Today
High -- | Low -- °F
--% Chance of Precip.
Yesterday
High -- | Low -- °F
Precip. -- in
Pressure 29.82 in
Visibility 4.0 miles
Clouds Scattered Clouds 6000 ft
Mostly Cloudy 7000 ft
Overcast 9000 ft
Dew Point 58 °F
Humidity 98%
Rainfall 0.66 in
Snow Depth Not available.
7:14 AM 7:41 PM
New Moon, 3% visible
METAR KJDD 291035Z AUTO 00000KT 4SM RA BR SCT060 BKN070 OVC090 16/15 A2982 RMK AO2 LTG DSNT ALQDS P0007
Pressure 29.82 in
Visibility 4.0 miles
Clouds Scattered Clouds 6000 ft
Mostly Cloudy 7000 ft
Overcast 9000 ft
Dew Point 58 °F
Humidity 98%
Rainfall 0.66 in
Snow Depth Not available.
7:14 AM 7:41 PM
New Moon, 3% visible
METAR KJDD 291035Z AUTO 00000KT 4SM RA BR SCT060 BKN070 OVC090 16/15 A2982 RMK AO2 LTG DSNT ALQDS P0007

Get Severe Weather Alerts

Thanks for signing up!

Be on the lookout for a verification email in your inbox.

You'll start receiving the daily forecast at 8 AM.

×

10-Day Weather Forecast

Almanac

Astronomy

Mar. 29, 2017 Rise Set
Actual Time
Civil Twilight
Nautical Twilight
Astronomical Twilight
Moon
Length of Visible Light
Length of Day
Tomorrow will be .
, % of the Moon is Illuminated

Today's Extremes

State Highs State Lows

Community

WunderPhotos

Upload Photos

1,962,540 photos uploaded!

WunderBlog® & News

Nearby

Air Quality

  Air Quality AQ Index Pollutant
Not available.

Snow Depth

Station Depth Elevation

Earthquake Activity

City Distance Mag. Time & Date
Minimum magnitude displayed is 2.5.

Earthquake Activity

City Distance Mag. Time & Date
Minimum magnitude displayed is 2.5.

Coastal Water Temperatures

Place Temperature

Stations

Nearby Weather Stations

Station Location Temp. Windchill Dew Point Humidity Wind Precip. Elev Updated Type
                   

Watches & Warnings

There are currently no watches in effect.